sensor_id;sensor_type;location;lat;lon;timestamp;P1;durP1;ratioP1;P2;durP2;ratioP2
18997;SDS011;9632;51.018;4.284;2023-03-11T00:00:59;7.60;;;2.07;;
18997;SDS011;9632;51.018;4.284;2023-03-11T00:03:25;10.40;;;2.57;;
18997;SDS011;9632;51.018;4.284;2023-03-11T00:05:53;11.87;;;2.50;;
18997;SDS011;9632;51.018;4.284;2023-03-11T00:08:21;8.20;;;2.33;;
18997;SDS011;9632;51.018;4.284;2023-03-11T00:10:50;7.50;;;2.50;;
18997;SDS011;9632;51.018;4.284;2023-03-11T00:13:17;8.63;;;2.07;;
18997;SDS011;9632;51.018;4.284;2023-03-11T00:15:44;8.43;;;2.50;;
18997;SDS011;9632;51.018;4.284;2023-03-11T00:18:12;7.63;;;2.20;;
18997;SDS011;9632;51.018;4.284;2023-03-11T00:20:39;6.37;;;1.90;;
18997;SDS011;9632;51.018;4.284;2023-03-11T00:23:06;6.03;;;2.20;;
18997;SDS011;9632;51.018;4.284;2023-03-11T00:25:34;7.70;;;2.10;;
18997;SDS011;9632;51.018;4.284;2023-03-11T00:28:01;8.83;;;2.00;;
18997;SDS011;9632;51.018;4.284;2023-03-11T00:30:27;8.60;;;2.00;;
18997;SDS011;9632;51.018;4.284;2023-03-11T00:32:54;5.87;;;2.10;;
18997;SDS011;9632;51.018;4.284;2023-03-11T00:35:28;5.77;;;2.00;;
18997;SDS011;9632;51.018;4.284;2023-03-11T00:37:56;7.37;;;2.00;;
18997;SDS011;9632;51.018;4.284;2023-03-11T00:40:24;12.20;;;2.30;;
18997;SDS011;9632;51.018;4.284;2023-03-11T00:42:52;4.97;;;1.77;;
18997;SDS011;9632;51.018;4.284;2023-03-11T00:45:19;3.97;;;1.73;;
18997;SDS011;9632;51.018;4.284;2023-03-11T00:47:45;4.03;;;1.47;;
18997;SDS011;9632;51.018;4.284;2023-03-11T00:50:19;6.87;;;1.63;;
18997;SDS011;9632;51.018;4.284;2023-03-11T00:52:48;9.00;;;1.80;;
18997;SDS011;9632;51.018;4.284;2023-03-11T00:55:16;7.83;;;1.70;;
18997;SDS011;9632;51.018;4.284;2023-03-11T00:57:45;10.77;;;3.00;;
18997;SDS011;9632;51.018;4.284;2023-03-11T01:00:12;9.03;;;1.90;;
18997;SDS011;9632;51.018;4.284;2023-03-11T01:02:42;8.70;;;1.97;;
18997;SDS011;9632;51.018;4.284;2023-03-11T01:05:08;7.37;;;1.80;;
18997;SDS011;9632;51.018;4.284;2023-03-11T01:07:34;10.47;;;1.70;;
18997;SDS011;9632;51.018;4.284;2023-03-11T01:10:00;8.30;;;1.90;;
18997;SDS011;9632;51.018;4.284;2023-03-11T01:12:26;7.33;;;2.27;;
18997;SDS011;9632;51.018;4.284;2023-03-11T01:14:52;5.43;;;1.50;;
18997;SDS011;9632;51.018;4.284;2023-03-11T01:17:18;6.03;;;1.70;;
18997;SDS011;9632;51.018;4.284;2023-03-11T01:19:46;8.20;;;1.63;;
18997;SDS011;9632;51.018;4.284;2023-03-11T01:22:12;8.40;;;1.83;;
18997;SDS011;9632;51.018;4.284;2023-03-11T01:24:37;2.87;;;1.50;;
18997;SDS011;9632;51.018;4.284;2023-03-11T01:27:03;5.97;;;1.70;;
18997;SDS011;9632;51.018;4.284;2023-03-11T01:29:29;6.20;;;1.73;;
18997;SDS011;9632;51.018;4.284;2023-03-11T01:31:54;5.30;;;1.63;;
18997;SDS011;9632;51.018;4.284;2023-03-11T01:34:20;7.53;;;1.73;;
18997;SDS011;9632;51.018;4.284;2023-03-11T01:36:46;9.30;;;1.70;;
18997;SDS011;9632;51.018;4.284;2023-03-11T01:39:11;7.27;;;1.60;;
18997;SDS011;9632;51.018;4.284;2023-03-11T01:41:37;6.10;;;1.70;;
18997;SDS011;9632;51.018;4.284;2023-03-11T01:44:03;4.63;;;1.57;;
18997;SDS011;9632;51.018;4.284;2023-03-11T01:46:34;6.00;;;1.50;;
18997;SDS011;9632;51.018;4.284;2023-03-11T01:49:23;8.70;;;1.60;;
18997;SDS011;9632;51.018;4.284;2023-03-11T01:51:51;9.23;;;1.80;;
18997;SDS011;9632;51.018;4.284;2023-03-11T01:54:21;6.67;;;1.67;;
18997;SDS011;9632;51.018;4.284;2023-03-11T01:56:47;7.63;;;1.43;;
18997;SDS011;9632;51.018;4.284;2023-03-11T01:59:15;10.10;;;2.40;;
18997;SDS011;9632;51.018;4.284;2023-03-11T02:01:48;10.57;;;2.60;;
18997;SDS011;9632;51.018;4.284;2023-03-11T02:04:22;8.80;;;2.80;;
18997;SDS011;9632;51.018;4.284;2023-03-11T02:06:48;11.17;;;2.73;;
18997;SDS011;9632;51.018;4.284;2023-03-11T02:09:14;8.07;;;1.83;;
18997;SDS011;9632;51.018;4.284;2023-03-11T02:11:39;8.23;;;2.03;;
18997;SDS011;9632;51.018;4.284;2023-03-11T02:14:05;7.50;;;1.80;;
18997;SDS011;9632;51.018;4.284;2023-03-11T02:16:32;6.03;;;2.23;;
18997;SDS011;9632;51.018;4.284;2023-03-11T02:18:59;9.30;;;2.10;;
18997;SDS011;9632;51.018;4.284;2023-03-11T02:21:38;8.87;;;1.90;;
18997;SDS011;9632;51.018;4.284;2023-03-11T02:24:08;10.97;;;2.07;;
18997;SDS011;9632;51.018;4.284;2023-03-11T02:26:55;8.97;;;2.30;;
18997;SDS011;9632;51.018;4.284;2023-03-11T02:29:24;6.47;;;2.03;;
18997;SDS011;9632;51.018;4.284;2023-03-11T02:31:51;8.53;;;1.83;;
18997;SDS011;9632;51.018;4.284;2023-03-11T02:34:20;6.17;;;1.57;;
18997;SDS011;9632;51.018;4.284;2023-03-11T02:36:57;5.77;;;2.00;;
18997;SDS011;9632;51.018;4.284;2023-03-11T02:39:31;7.10;;;1.90;;
18997;SDS011;9632;51.018;4.284;2023-03-11T02:44:53;7.07;;;1.80;;
18997;SDS011;9632;51.018;4.284;2023-03-11T02:47:23;4.83;;;1.60;;
18997;SDS011;9632;51.018;4.284;2023-03-11T02:49:50;8.53;;;1.80;;
18997;SDS011;9632;51.018;4.284;2023-03-11T02:52:17;4.93;;;1.70;;
18997;SDS011;9632;51.018;4.284;2023-03-11T02:54:44;8.07;;;1.80;;
18997;SDS011;9632;51.018;4.284;2023-03-11T02:57:09;10.00;;;1.70;;
18997;SDS011;9632;51.018;4.284;2023-03-11T02:59:35;5.27;;;1.83;;
18997;SDS011;9632;51.018;4.284;2023-03-11T03:02:00;6.60;;;1.80;;
18997;SDS011;9632;51.018;4.284;2023-03-11T03:04:26;8.37;;;1.90;;
18997;SDS011;9632;51.018;4.284;2023-03-11T03:06:51;6.57;;;1.43;;
18997;SDS011;9632;51.018;4.284;2023-03-11T03:09:17;7.80;;;2.00;;
18997;SDS011;9632;51.018;4.284;2023-03-11T03:11:43;6.80;;;1.70;;
18997;SDS011;9632;51.018;4.284;2023-03-11T03:14:08;7.60;;;1.70;;
18997;SDS011;9632;51.018;4.284;2023-03-11T03:16:34;4.17;;;1.47;;
18997;SDS011;9632;51.018;4.284;2023-03-11T03:19:00;5.73;;;1.90;;
18997;SDS011;9632;51.018;4.284;2023-03-11T03:21:25;6.80;;;1.70;;
18997;SDS011;9632;51.018;4.284;2023-03-11T03:23:51;6.03;;;1.70;;
18997;SDS011;9632;51.018;4.284;2023-03-11T03:26:17;6.97;;;1.70;;
18997;SDS011;9632;51.018;4.284;2023-03-11T03:28:42;5.80;;;1.70;;
18997;SDS011;9632;51.018;4.284;2023-03-11T03:31:08;5.50;;;1.63;;
18997;SDS011;9632;51.018;4.284;2023-03-11T03:33:35;4.67;;;1.40;;
18997;SDS011;9632;51.018;4.284;2023-03-11T03:36:04;5.37;;;1.80;;
18997;SDS011;9632;51.018;4.284;2023-03-11T03:38:31;8.90;;;1.93;;
18997;SDS011;9632;51.018;4.284;2023-03-11T03:40:57;6.20;;;1.63;;
18997;SDS011;9632;51.018;4.284;2023-03-11T03:43:22;6.50;;;1.63;;
18997;SDS011;9632;51.018;4.284;2023-03-11T03:45:55;7.63;;;1.63;;
18997;SDS011;9632;51.018;4.284;2023-03-11T03:48:25;4.77;;;1.63;;
18997;SDS011;9632;51.018;4.284;2023-03-11T03:50:50;6.90;;;1.77;;
18997;SDS011;9632;51.018;4.284;2023-03-11T03:53:16;6.37;;;2.03;;
18997;SDS011;9632;51.018;4.284;2023-03-11T03:55:42;5.37;;;1.60;;
18997;SDS011;9632;51.018;4.284;2023-03-11T03:58:08;6.07;;;2.10;;
18997;SDS011;9632;51.018;4.284;2023-03-11T04:00:33;5.77;;;1.97;;
18997;SDS011;9632;51.018;4.284;2023-03-11T04:02:59;6.20;;;1.83;;
18997;SDS011;9632;51.018;4.284;2023-03-11T04:05:25;4.87;;;1.50;;
18997;SDS011;9632;51.018;4.284;2023-03-11T04:07:52;5.53;;;1.67;;
18997;SDS011;9632;51.018;4.284;2023-03-11T04:10:18;5.60;;;1.80;;
18997;SDS011;9632;51.018;4.284;2023-03-11T04:12:43;5.57;;;1.80;;
18997;SDS011;9632;51.018;4.284;2023-03-11T04:15:09;5.90;;;1.70;;
18997;SDS011;9632;51.018;4.284;2023-03-11T04:17:36;5.03;;;1.87;;
18997;SDS011;9632;51.018;4.284;2023-03-11T04:20:02;6.93;;;1.80;;
18997;SDS011;9632;51.018;4.284;2023-03-11T04:22:31;5.80;;;1.83;;
18997;SDS011;9632;51.018;4.284;2023-03-11T04:24:58;4.97;;;1.77;;
18997;SDS011;9632;51.018;4.284;2023-03-11T04:27:23;4.43;;;2.00;;
18997;SDS011;9632;51.018;4.284;2023-03-11T04:29:49;6.10;;;1.77;;
18997;SDS011;9632;51.018;4.284;2023-03-11T04:32:15;5.67;;;1.73;;
18997;SDS011;9632;51.018;4.284;2023-03-11T04:34:41;8.13;;;2.40;;
18997;SDS011;9632;51.018;4.284;2023-03-11T04:37:06;7.07;;;1.80;;
18997;SDS011;9632;51.018;4.284;2023-03-11T04:39:32;7.83;;;1.80;;
18997;SDS011;9632;51.018;4.284;2023-03-11T04:41:58;4.20;;;1.90;;
18997;SDS011;9632;51.018;4.284;2023-03-11T04:44:24;6.00;;;1.80;;
18997;SDS011;9632;51.018;4.284;2023-03-11T04:46:49;6.30;;;1.67;;
18997;SDS011;9632;51.018;4.284;2023-03-11T04:49:15;5.40;;;1.80;;
18997;SDS011;9632;51.018;4.284;2023-03-11T04:51:41;3.20;;;1.70;;
18997;SDS011;9632;51.018;4.284;2023-03-11T04:54:07;6.87;;;1.60;;
18997;SDS011;9632;51.018;4.284;2023-03-11T04:56:32;6.67;;;2.07;;
18997;SDS011;9632;51.018;4.284;2023-03-11T04:58:58;5.43;;;1.70;;
18997;SDS011;9632;51.018;4.284;2023-03-11T05:01:24;7.20;;;1.90;;
18997;SDS011;9632;51.018;4.284;2023-03-11T05:03:50;4.80;;;1.87;;
18997;SDS011;9632;51.018;4.284;2023-03-11T05:06:15;7.77;;;2.07;;
18997;SDS011;9632;51.018;4.284;2023-03-11T05:08:41;7.13;;;2.07;;
18997;SDS011;9632;51.018;4.284;2023-03-11T05:11:07;3.70;;;1.63;;
18997;SDS011;9632;51.018;4.284;2023-03-11T05:13:32;3.70;;;1.70;;
18997;SDS011;9632;51.018;4.284;2023-03-11T05:15:58;3.93;;;1.90;;
18997;SDS011;9632;51.018;4.284;2023-03-11T05:18:24;4.90;;;1.67;;
18997;SDS011;9632;51.018;4.284;2023-03-11T05:20:50;8.57;;;1.83;;
18997;SDS011;9632;51.018;4.284;2023-03-11T05:23:16;8.27;;;1.93;;
18997;SDS011;9632;51.018;4.284;2023-03-11T05:25:41;6.77;;;2.03;;
18997;SDS011;9632;51.018;4.284;2023-03-11T05:28:07;4.97;;;1.70;;
18997;SDS011;9632;51.018;4.284;2023-03-11T05:30:33;6.00;;;2.03;;
18997;SDS011;9632;51.018;4.284;2023-03-11T05:32:58;6.57;;;1.90;;
18997;SDS011;9632;51.018;4.284;2023-03-11T05:35:24;5.43;;;1.90;;
18997;SDS011;9632;51.018;4.284;2023-03-11T05:37:50;5.20;;;1.80;;
18997;SDS011;9632;51.018;4.284;2023-03-11T05:40:17;5.90;;;1.90;;
18997;SDS011;9632;51.018;4.284;2023-03-11T05:42:43;3.80;;;1.60;;
18997;SDS011;9632;51.018;4.284;2023-03-11T05:45:09;6.80;;;1.87;;
18997;SDS011;9632;51.018;4.284;2023-03-11T05:47:35;4.97;;;2.03;;
18997;SDS011;9632;51.018;4.284;2023-03-11T05:50:00;4.93;;;2.03;;
18997;SDS011;9632;51.018;4.284;2023-03-11T05:52:26;6.17;;;1.87;;
18997;SDS011;9632;51.018;4.284;2023-03-11T05:54:52;7.63;;;2.07;;
18997;SDS011;9632;51.018;4.284;2023-03-11T05:57:18;9.13;;;2.07;;
18997;SDS011;9632;51.018;4.284;2023-03-11T05:59:43;6.67;;;2.10;;
18997;SDS011;9632;51.018;4.284;2023-03-11T06:02:09;6.90;;;1.80;;
18997;SDS011;9632;51.018;4.284;2023-03-11T06:04:35;6.40;;;1.80;;
18997;SDS011;9632;51.018;4.284;2023-03-11T06:07:01;4.07;;;2.10;;
18997;SDS011;9632;51.018;4.284;2023-03-11T06:09:27;5.10;;;2.20;;
18997;SDS011;9632;51.018;4.284;2023-03-11T06:11:53;5.93;;;2.10;;
18997;SDS011;9632;51.018;4.284;2023-03-11T06:14:19;6.17;;;2.10;;
18997;SDS011;9632;51.018;4.284;2023-03-11T06:16:44;6.93;;;1.97;;
18997;SDS011;9632;51.018;4.284;2023-03-11T06:19:10;7.03;;;2.30;;
18997;SDS011;9632;51.018;4.284;2023-03-11T06:21:36;4.17;;;1.63;;
18997;SDS011;9632;51.018;4.284;2023-03-11T06:24:02;6.57;;;2.60;;
18997;SDS011;9632;51.018;4.284;2023-03-11T06:26:28;3.47;;;1.63;;
18997;SDS011;9632;51.018;4.284;2023-03-11T06:28:54;3.37;;;1.90;;
18997;SDS011;9632;51.018;4.284;2023-03-11T06:31:23;5.33;;;1.90;;
18997;SDS011;9632;51.018;4.284;2023-03-11T06:33:51;6.30;;;2.23;;
18997;SDS011;9632;51.018;4.284;2023-03-11T06:36:20;4.50;;;2.00;;
18997;SDS011;9632;51.018;4.284;2023-03-11T06:38:46;5.87;;;1.83;;
18997;SDS011;9632;51.018;4.284;2023-03-11T06:41:14;7.77;;;2.10;;
18997;SDS011;9632;51.018;4.284;2023-03-11T06:43:40;2.77;;;1.80;;
18997;SDS011;9632;51.018;4.284;2023-03-11T06:46:07;6.00;;;2.20;;
18997;SDS011;9632;51.018;4.284;2023-03-11T06:48:34;8.87;;;2.20;;
18997;SDS011;9632;51.018;4.284;2023-03-11T06:51:00;6.20;;;2.90;;
18997;SDS011;9632;51.018;4.284;2023-03-11T06:53:26;7.57;;;3.50;;
18997;SDS011;9632;51.018;4.284;2023-03-11T06:55:57;9.93;;;3.83;;
18997;SDS011;9632;51.018;4.284;2023-03-11T06:58:27;9.77;;;3.77;;
18997;SDS011;9632;51.018;4.284;2023-03-11T07:00:53;11.90;;;3.30;;
18997;SDS011;9632;51.018;4.284;2023-03-11T07:03:23;8.27;;;3.10;;
18997;SDS011;9632;51.018;4.284;2023-03-11T07:05:49;9.47;;;3.17;;
18997;SDS011;9632;51.018;4.284;2023-03-11T07:08:15;11.33;;;4.07;;
18997;SDS011;9632;51.018;4.284;2023-03-11T07:10:41;16.80;;;5.90;;
18997;SDS011;9632;51.018;4.284;2023-03-11T07:13:07;15.47;;;5.03;;
18997;SDS011;9632;51.018;4.284;2023-03-11T07:15:32;18.33;;;6.13;;
18997;SDS011;9632;51.018;4.284;2023-03-11T07:17:59;14.83;;;5.87;;
18997;SDS011;9632;51.018;4.284;2023-03-11T07:20:25;19.03;;;6.77;;
18997;SDS011;9632;51.018;4.284;2023-03-11T07:22:51;21.37;;;6.97;;
18997;SDS011;9632;51.018;4.284;2023-03-11T07:25:17;17.03;;;6.70;;
18997;SDS011;9632;51.018;4.284;2023-03-11T07:27:43;19.50;;;6.47;;
18997;SDS011;9632;51.018;4.284;2023-03-11T07:30:08;12.23;;;5.23;;
18997;SDS011;9632;51.018;4.284;2023-03-11T07:32:35;12.93;;;4.07;;
18997;SDS011;9632;51.018;4.284;2023-03-11T07:35:00;11.27;;;3.77;;
18997;SDS011;9632;51.018;4.284;2023-03-11T07:37:27;10.00;;;4.10;;
18997;SDS011;9632;51.018;4.284;2023-03-11T07:39:52;8.20;;;3.03;;
18997;SDS011;9632;51.018;4.284;2023-03-11T07:42:18;11.47;;;4.33;;
18997;SDS011;9632;51.018;4.284;2023-03-11T07:44:44;9.60;;;3.40;;
18997;SDS011;9632;51.018;4.284;2023-03-11T07:47:09;14.73;;;3.80;;
18997;SDS011;9632;51.018;4.284;2023-03-11T07:49:35;10.73;;;3.53;;
18997;SDS011;9632;51.018;4.284;2023-03-11T07:52:00;10.83;;;3.70;;
18997;SDS011;9632;51.018;4.284;2023-03-11T07:54:26;9.33;;;3.67;;
18997;SDS011;9632;51.018;4.284;2023-03-11T07:56:52;12.67;;;4.30;;
18997;SDS011;9632;51.018;4.284;2023-03-11T07:59:18;11.77;;;3.60;;
18997;SDS011;9632;51.018;4.284;2023-03-11T08:01:43;7.43;;;3.20;;
18997;SDS011;9632;51.018;4.284;2023-03-11T08:04:12;10.13;;;3.57;;
18997;SDS011;9632;51.018;4.284;2023-03-11T08:06:40;9.23;;;3.53;;
18997;SDS011;9632;51.018;4.284;2023-03-11T08:09:07;14.13;;;3.60;;
18997;SDS011;9632;51.018;4.284;2023-03-11T08:11:34;9.73;;;3.67;;
18997;SDS011;9632;51.018;4.284;2023-03-11T08:14:00;8.80;;;3.40;;
18997;SDS011;9632;51.018;4.284;2023-03-11T08:16:26;12.60;;;3.87;;
18997;SDS011;9632;51.018;4.284;2023-03-11T08:18:53;11.10;;;4.23;;
18997;SDS011;9632;51.018;4.284;2023-03-11T08:21:20;10.30;;;4.47;;
18997;SDS011;9632;51.018;4.284;2023-03-11T08:23:48;12.88;;;4.25;;
18997;SDS011;9632;51.018;4.284;2023-03-11T08:26:15;11.70;;;4.32;;
18997;SDS011;9632;51.018;4.284;2023-03-11T08:28:43;11.70;;;4.53;;
18997;SDS011;9632;51.018;4.284;2023-03-11T08:33:42;14.63;;;4.22;;
18997;SDS011;9632;51.018;4.284;2023-03-11T08:36:10;10.52;;;4.10;;
18997;SDS011;9632;51.018;4.284;2023-03-11T08:38:35;15.02;;;4.55;;
18997;SDS011;9632;51.018;4.284;2023-03-11T08:41:01;15.63;;;4.18;;
18997;SDS011;9632;51.018;4.284;2023-03-11T08:43:27;12.07;;;4.30;;
18997;SDS011;9632;51.018;4.284;2023-03-11T08:45:53;12.93;;;4.35;;
18997;SDS011;9632;51.018;4.284;2023-03-11T08:48:18;14.27;;;4.63;;
18997;SDS011;9632;51.018;4.284;2023-03-11T08:50:44;15.98;;;4.30;;
18997;SDS011;9632;51.018;4.284;2023-03-11T08:53:10;16.35;;;4.53;;
18997;SDS011;9632;51.018;4.284;2023-03-11T08:55:35;13.57;;;3.85;;
18997;SDS011;9632;51.018;4.284;2023-03-11T08:58:01;11.07;;;3.65;;
18997;SDS011;9632;51.018;4.284;2023-03-11T09:00:27;14.00;;;4.43;;
18997;SDS011;9632;51.018;4.284;2023-03-11T09:02:53;15.30;;;5.90;;
18997;SDS011;9632;51.018;4.284;2023-03-11T09:05:18;12.70;;;5.30;;
18997;SDS011;9632;51.018;4.284;2023-03-11T09:07:44;10.25;;;4.03;;
18997;SDS011;9632;51.018;4.284;2023-03-11T09:10:11;12.85;;;3.78;;
18997;SDS011;9632;51.018;4.284;2023-03-11T09:12:38;10.77;;;3.17;;
18997;SDS011;9632;51.018;4.284;2023-03-11T09:15:04;9.10;;;2.60;;
18997;SDS011;9632;51.018;4.284;2023-03-11T09:17:30;9.57;;;2.50;;
18997;SDS011;9632;51.018;4.284;2023-03-11T09:19:56;8.18;;;1.60;;
18997;SDS011;9632;51.018;4.284;2023-03-11T09:22:22;8.02;;;1.73;;
18997;SDS011;9632;51.018;4.284;2023-03-11T09:24:47;8.52;;;1.95;;
18997;SDS011;9632;51.018;4.284;2023-03-11T09:27:13;8.93;;;1.85;;
18997;SDS011;9632;51.018;4.284;2023-03-11T09:29:39;6.60;;;1.67;;
18997;SDS011;9632;51.018;4.284;2023-03-11T09:32:05;10.02;;;1.67;;
18997;SDS011;9632;51.018;4.284;2023-03-11T09:34:31;5.95;;;1.30;;
18997;SDS011;9632;51.018;4.284;2023-03-11T09:36:57;8.00;;;1.20;;
18997;SDS011;9632;51.018;4.284;2023-03-11T09:39:24;5.57;;;1.40;;
18997;SDS011;9632;51.018;4.284;2023-03-11T09:41:57;6.70;;;1.20;;
18997;SDS011;9632;51.018;4.284;2023-03-11T09:55:26;8.05;;;1.38;;
18997;SDS011;9632;51.018;4.284;2023-03-11T09:57:54;7.07;;;1.13;;
18997;SDS011;9632;51.018;4.284;2023-03-11T10:00:22;4.40;;;1.27;;
18997;SDS011;9632;51.018;4.284;2023-03-11T10:02:49;5.22;;;0.95;;
18997;SDS011;9632;51.018;4.284;2023-03-11T10:05:19;6.28;;;1.73;;
18997;SDS011;9632;51.018;4.284;2023-03-11T10:07:59;8.02;;;1.08;;
18997;SDS011;9632;51.018;4.284;2023-03-11T10:10:27;8.00;;;1.58;;
18997;SDS011;9632;51.018;4.284;2023-03-11T10:13:07;16.25;;;3.50;;
18997;SDS011;9632;51.018;4.284;2023-03-11T10:24:37;10.00;;;1.38;;
18997;SDS011;9632;51.018;4.284;2023-03-11T10:27:13;12.07;;;2.47;;
18997;SDS011;9632;51.018;4.284;2023-03-11T10:29:59;8.90;;;2.40;;
18997;SDS011;9632;51.018;4.284;2023-03-11T10:32:34;6.47;;;1.30;;
18997;SDS011;9632;51.018;4.284;2023-03-11T10:35:23;7.07;;;1.27;;
18997;SDS011;9632;51.018;4.284;2023-03-11T10:38:04;6.10;;;1.13;;
18997;SDS011;9632;51.018;4.284;2023-03-11T10:40:43;5.20;;;0.93;;
18997;SDS011;9632;51.018;4.284;2023-03-11T10:43:13;5.22;;;0.90;;
18997;SDS011;9632;51.018;4.284;2023-03-11T10:45:43;6.60;;;0.90;;
18997;SDS011;9632;51.018;4.284;2023-03-11T10:48:13;3.72;;;0.80;;
18997;SDS011;9632;51.018;4.284;2023-03-11T10:50:43;5.05;;;0.90;;
18997;SDS011;9632;51.018;4.284;2023-03-11T10:53:21;3.80;;;0.88;;
18997;SDS011;9632;51.018;4.284;2023-03-11T10:55:48;8.15;;;1.20;;
18997;SDS011;9632;51.018;4.284;2023-03-11T10:58:17;2.35;;;0.70;;
18997;SDS011;9632;51.018;4.284;2023-03-11T11:00:44;7.22;;;0.85;;
18997;SDS011;9632;51.018;4.284;2023-03-11T11:03:15;4.68;;;0.80;;
18997;SDS011;9632;51.018;4.284;2023-03-11T11:06:01;3.22;;;0.70;;
18997;SDS011;9632;51.018;4.284;2023-03-11T11:08:29;8.05;;;1.10;;
18997;SDS011;9632;51.018;4.284;2023-03-11T11:11:00;5.43;;;1.05;;
18997;SDS011;9632;51.018;4.284;2023-03-11T11:13:28;6.53;;;1.02;;
18997;SDS011;9632;51.018;4.284;2023-03-11T11:15:59;4.30;;;1.02;;
18997;SDS011;9632;51.018;4.284;2023-03-11T11:21:04;3.97;;;0.80;;
18997;SDS011;9632;51.018;4.284;2023-03-11T11:23:48;6.18;;;0.82;;
18997;SDS011;9632;51.018;4.284;2023-03-11T11:26:19;10.07;;;1.10;;
18997;SDS011;9632;51.018;4.284;2023-03-11T11:29:04;4.57;;;0.90;;
18997;SDS011;9632;51.018;4.284;2023-03-11T11:31:30;4.93;;;1.00;;
18997;SDS011;9632;51.018;4.284;2023-03-11T11:33:56;6.05;;;0.90;;
18997;SDS011;9632;51.018;4.284;2023-03-11T11:36:27;7.28;;;0.98;;
18997;SDS011;9632;51.018;4.284;2023-03-11T11:38:54;7.88;;;1.33;;
18997;SDS011;9632;51.018;4.284;2023-03-11T11:41:21;4.90;;;1.00;;
18997;SDS011;9632;51.018;4.284;2023-03-11T11:43:50;8.32;;;0.93;;
18997;SDS011;9632;51.018;4.284;2023-03-11T11:46:29;9.35;;;1.02;;
18997;SDS011;9632;51.018;4.284;2023-03-11T11:54:35;8.40;;;1.45;;
18997;SDS011;9632;51.018;4.284;2023-03-11T11:57:12;6.88;;;1.00;;
18997;SDS011;9632;51.018;4.284;2023-03-11T11:59:40;6.22;;;1.15;;
18997;SDS011;9632;51.018;4.284;2023-03-11T12:07:39;16.45;;;4.13;;
18997;SDS011;9632;51.018;4.284;2023-03-11T12:15:40;5.93;;;0.93;;
18997;SDS011;9632;51.018;4.284;2023-03-11T12:18:16;5.30;;;0.98;;
18997;SDS011;9632;51.018;4.284;2023-03-11T12:20:52;3.47;;;0.90;;
18997;SDS011;9632;51.018;4.284;2023-03-11T12:23:36;7.00;;;1.45;;
18997;SDS011;9632;51.018;4.284;2023-03-11T12:31:21;10.48;;;1.08;;
18997;SDS011;9632;51.018;4.284;2023-03-11T12:33:49;6.10;;;0.93;;
18997;SDS011;9632;51.018;4.284;2023-03-11T12:36:24;9.20;;;1.40;;
18997;SDS011;9632;51.018;4.284;2023-03-11T12:38:55;20.80;;;6.07;;
18997;SDS011;9632;51.018;4.284;2023-03-11T12:41:35;6.47;;;1.08;;
18997;SDS011;9632;51.018;4.284;2023-03-11T12:44:21;12.38;;;3.42;;
18997;SDS011;9632;51.018;4.284;2023-03-11T12:49:25;18.70;;;4.75;;
18997;SDS011;9632;51.018;4.284;2023-03-11T12:54:34;6.60;;;1.20;;
18997;SDS011;9632;51.018;4.284;2023-03-11T13:05:43;6.45;;;1.55;;
18997;SDS011;9632;51.018;4.284;2023-03-11T13:08:43;5.68;;;1.00;;
18997;SDS011;9632;51.018;4.284;2023-03-11T13:14:22;6.97;;;1.27;;
18997;SDS011;9632;51.018;4.284;2023-03-11T13:19:47;5.43;;;0.90;;
18997;SDS011;9632;51.018;4.284;2023-03-11T13:25:25;6.28;;;1.00;;
18997;SDS011;9632;51.018;4.284;2023-03-11T13:27:54;7.40;;;1.02;;
18997;SDS011;9632;51.018;4.284;2023-03-11T13:30:25;4.43;;;1.30;;
18997;SDS011;9632;51.018;4.284;2023-03-11T13:35:57;8.50;;;1.10;;
18997;SDS011;9632;51.018;4.284;2023-03-11T13:41:31;8.45;;;1.33;;
18997;SDS011;9632;51.018;4.284;2023-03-11T13:44:12;7.43;;;0.93;;
18997;SDS011;9632;51.018;4.284;2023-03-11T13:46:48;5.90;;;0.93;;
18997;SDS011;9632;51.018;4.284;2023-03-11T13:49:31;8.15;;;1.08;;
18997;SDS011;9632;51.018;4.284;2023-03-11T13:52:08;4.95;;;0.73;;
18997;SDS011;9632;51.018;4.284;2023-03-11T13:54:41;5.75;;;1.15;;
18997;SDS011;9632;51.018;4.284;2023-03-11T13:57:21;8.57;;;1.20;;
18997;SDS011;9632;51.018;4.284;2023-03-11T13:59:54;6.18;;;1.25;;
18997;SDS011;9632;51.018;4.284;2023-03-11T14:02:24;10.18;;;1.55;;
18997;SDS011;9632;51.018;4.284;2023-03-11T14:04:57;6.03;;;1.30;;
18997;SDS011;9632;51.018;4.284;2023-03-11T14:07:30;6.20;;;1.08;;
18997;SDS011;9632;51.018;4.284;2023-03-11T14:10:18;5.15;;;0.82;;
18997;SDS011;9632;51.018;4.284;2023-03-11T14:12:47;9.32;;;1.20;;
18997;SDS011;9632;51.018;4.284;2023-03-11T14:15:18;4.38;;;1.00;;
18997;SDS011;9632;51.018;4.284;2023-03-11T14:17:51;4.15;;;0.90;;
18997;SDS011;9632;51.018;4.284;2023-03-11T14:20:19;5.90;;;1.40;;
18997;SDS011;9632;51.018;4.284;2023-03-11T14:22:50;5.28;;;1.00;;
18997;SDS011;9632;51.018;4.284;2023-03-11T14:25:23;4.72;;;0.85;;
18997;SDS011;9632;51.018;4.284;2023-03-11T14:27:52;3.60;;;1.00;;
18997;SDS011;9632;51.018;4.284;2023-03-11T14:30:30;5.43;;;0.88;;
18997;SDS011;9632;51.018;4.284;2023-03-11T14:35:56;6.60;;;0.73;;
18997;SDS011;9632;51.018;4.284;2023-03-11T14:38:30;6.90;;;0.88;;
18997;SDS011;9632;51.018;4.284;2023-03-11T14:40:57;3.35;;;0.80;;
18997;SDS011;9632;51.018;4.284;2023-03-11T14:43:36;5.15;;;0.80;;
18997;SDS011;9632;51.018;4.284;2023-03-11T14:46:10;4.72;;;1.00;;
18997;SDS011;9632;51.018;4.284;2023-03-11T14:48:43;8.05;;;1.05;;
18997;SDS011;9632;51.018;4.284;2023-03-11T14:51:12;7.07;;;1.25;;
18997;SDS011;9632;51.018;4.284;2023-03-11T14:53:44;3.88;;;0.77;;
18997;SDS011;9632;51.018;4.284;2023-03-11T14:56:17;3.25;;;0.93;;
18997;SDS011;9632;51.018;4.284;2023-03-11T14:58:54;4.50;;;0.90;;
18997;SDS011;9632;51.018;4.284;2023-03-11T15:01:39;4.78;;;0.82;;
18997;SDS011;9632;51.018;4.284;2023-03-11T15:04:11;3.92;;;0.70;;
18997;SDS011;9632;51.018;4.284;2023-03-11T15:06:41;2.97;;;0.70;;
18997;SDS011;9632;51.018;4.284;2023-03-11T15:09:14;4.82;;;0.80;;
18997;SDS011;9632;51.018;4.284;2023-03-11T15:11:43;3.85;;;0.68;;
18997;SDS011;9632;51.018;4.284;2023-03-11T15:14:22;4.72;;;1.02;;
18997;SDS011;9632;51.018;4.284;2023-03-11T15:16:48;4.07;;;0.80;;
18997;SDS011;9632;51.018;4.284;2023-03-11T15:21:53;4.30;;;0.68;;
18997;SDS011;9632;51.018;4.284;2023-03-11T15:24:26;6.13;;;0.90;;
18997;SDS011;9632;51.018;4.284;2023-03-11T15:27:07;6.10;;;0.75;;
18997;SDS011;9632;51.018;4.284;2023-03-11T15:29:49;3.58;;;0.82;;
18997;SDS011;9632;51.018;4.284;2023-03-11T15:32:34;2.30;;;0.73;;
18997;SDS011;9632;51.018;4.284;2023-03-11T15:37:32;5.97;;;1.00;;
18997;SDS011;9632;51.018;4.284;2023-03-11T15:40:09;7.35;;;0.90;;
18997;SDS011;9632;51.018;4.284;2023-03-11T15:45:53;6.30;;;1.10;;
18997;SDS011;9632;51.018;4.284;2023-03-11T15:48:21;6.20;;;0.70;;
18997;SDS011;9632;51.018;4.284;2023-03-11T15:50:54;3.75;;;0.85;;
18997;SDS011;9632;51.018;4.284;2023-03-11T15:53:22;4.57;;;0.82;;
18997;SDS011;9632;51.018;4.284;2023-03-11T15:55:49;4.63;;;0.60;;
18997;SDS011;9632;51.018;4.284;2023-03-11T15:58:16;2.72;;;0.85;;
18997;SDS011;9632;51.018;4.284;2023-03-11T16:00:48;2.78;;;0.60;;
18997;SDS011;9632;51.018;4.284;2023-03-11T16:03:16;4.65;;;0.90;;
18997;SDS011;9632;51.018;4.284;2023-03-11T16:05:43;4.65;;;0.85;;
18997;SDS011;9632;51.018;4.284;2023-03-11T16:08:09;5.80;;;1.02;;
18997;SDS011;9632;51.018;4.284;2023-03-11T16:10:35;3.47;;;0.70;;
18997;SDS011;9632;51.018;4.284;2023-03-11T16:13:01;4.35;;;0.82;;
18997;SDS011;9632;51.018;4.284;2023-03-11T16:15:28;5.78;;;1.70;;
18997;SDS011;9632;51.018;4.284;2023-03-11T16:17:57;3.13;;;1.13;;
18997;SDS011;9632;51.018;4.284;2023-03-11T16:20:25;4.03;;;0.90;;
18997;SDS011;9632;51.018;4.284;2023-03-11T16:22:53;6.35;;;1.10;;
18997;SDS011;9632;51.018;4.284;2023-03-11T16:25:30;5.95;;;0.98;;
18997;SDS011;9632;51.018;4.284;2023-03-11T16:28:02;3.75;;;1.10;;
18997;SDS011;9632;51.018;4.284;2023-03-11T16:30:29;4.60;;;1.52;;
18997;SDS011;9632;51.018;4.284;2023-03-11T16:32:56;7.43;;;1.77;;
18997;SDS011;9632;51.018;4.284;2023-03-11T16:35:22;2.72;;;1.00;;
18997;SDS011;9632;51.018;4.284;2023-03-11T16:37:48;7.50;;;1.10;;